Time;durP1;ratioP1;P1;durP2;ratioP2;P2;SDS_P1;SDS_P2;PMS_P1;PMS_P2;Temp;Humidity;BMP_temperature;BMP_pressure;BME280_temperature;BME280_humidity;BME280_pressure;Samples;Min_cycle;Max_cycle;Signal;HPM_P1;HPM_P2
2022/08/18 00:02:28;;;;;;;9.48;5.18;;;;;;;16.05;70.50;100341.63;5016977;28;20034;-78
2022/08/18 00:04:55;;;;;;;6.78;4.93;;;;;;;16.06;70.54;100351.28;4976873;28;20488;-79
2022/08/18 00:07:27;;;;;;;9.07;5.18;;;;;;;16.06;70.41;100343.28;4974698;28;20061;-80
2022/08/18 00:09:52;;;;;;;6.93;4.88;;;;;;;16.03;70.48;100332.97;4980801;28;20037;-81
2022/08/18 00:12:24;;;;;;;6.57;4.93;;;;;;;16.01;70.47;100329.66;4978061;28;20045;-80
2022/08/18 00:14:50;;;;;;;12.38;5.53;;;;;;;15.97;70.51;100323.84;5018456;28;20041;-80
2022/08/18 00:17:16;;;;;;;7.68;4.85;;;;;;;15.96;70.59;100324.84;5005228;28;20072;-80
2022/08/18 00:19:42;;;;;;;6.03;4.80;;;;;;;15.93;70.66;100330.53;4911138;28;20508;-79
2022/08/18 00:22:10;;;;;;;7.72;5.13;;;;;;;15.89;70.62;100323.94;4990595;28;20045;-77
2022/08/18 00:24:37;;;;;;;6.78;5.18;;;;;;;15.86;70.62;100317.13;4996029;28;20399;-77
2022/08/18 00:27:04;;;;;;;6.75;5.30;;;;;;;15.83;70.74;100308.69;4980532;28;20049;-80
2022/08/18 00:29:30;;;;;;;8.30;4.32;;;;;;;15.74;70.98;100297.25;4967239;28;20041;-79
2022/08/18 00:31:57;;;;;;;7.82;4.80;;;;;;;15.68;70.92;100301.50;4985377;28;20061;-80
2022/08/18 00:34:23;;;;;;;8.50;4.53;;;;;;;15.63;71.34;100299.38;5012867;28;20039;-82
2022/08/18 00:36:49;;;;;;;9.32;5.13;;;;;;;15.56;71.57;100301.09;4995032;28;20125;-81
2022/08/18 00:39:15;;;;;;;8.00;4.43;;;;;;;15.58;71.71;100295.59;5001806;28;20041;-82
2022/08/18 00:41:41;;;;;;;6.15;4.38;;;;;;;15.55;71.80;100303.94;5015612;28;20042;-81
2022/08/18 00:44:07;;;;;;;7.47;4.60;;;;;;;15.48;72.12;100294.00;5015884;28;20033;-80
2022/08/18 00:46:36;;;;;;;5.22;3.97;;;;;;;15.44;72.33;100292.72;4983912;28;20037;-82
2022/08/18 00:49:03;;;;;;;9.30;4.78;;;;;;;15.40;72.69;100296.72;4980639;28;20041;-80
2022/08/18 00:51:34;;;;;;;8.68;4.35;;;;;;;15.39;72.79;100292.44;4993990;28;20053;-82
2022/08/18 00:54:13;;;;;;;11.93;4.35;;;;;;;15.40;72.78;100285.28;4991163;28;20419;-81
2022/08/18 00:56:49;;;;;;;6.53;4.07;;;;;;;15.37;73.09;100286.44;5021517;28;20093;-80
2022/08/18 00:59:21;;;;;;;5.32;3.63;;;;;;;15.33;73.42;100277.16;5026857;28;20026;-81
2022/08/18 01:01:49;;;;;;;6.35;4.30;;;;;;;15.29;73.62;100267.91;4996227;28;20116;-77
2022/08/18 01:04:21;;;;;;;6.82;4.47;;;;;;;15.27;73.88;100265.41;5039571;28;20034;-80
2022/08/18 01:06:56;;;;;;;8.13;4.35;;;;;;;15.20;74.30;100257.31;4996060;28;20069;-79
2022/08/18 01:09:22;;;;;;;6.25;4.25;;;;;;;15.10;74.72;100260.22;5005112;28;20030;-84
2022/08/18 01:11:50;;;;;;;5.50;4.30;;;;;;;15.09;75.10;100263.91;4985139;28;20041;-80
2022/08/18 01:14:17;;;;;;;3.92;3.60;;;;;;;15.09;75.29;100261.22;4979412;28;20091;-83
2022/08/18 01:22:46;;;;;;;5.53;4.30;;;;;;;14.94;76.78;100261.16;4967361;28;20116;-81
2022/08/18 01:28:02;;;;;;;5.88;4.47;;;;;;;14.86;77.96;100254.06;4984785;28;20403;-80
2022/08/18 01:30:30;;;;;;;5.90;4.20;;;;;;;14.84;78.28;100247.28;4996050;28;20036;-79
2022/08/18 01:32:57;;;;;;;6.35;4.70;;;;;;;14.76;78.89;100246.28;4965290;28;20100;-79
2022/08/18 01:35:26;;;;;;;4.88;4.35;;;;;;;14.73;79.37;100249.31;4992097;28;20030;-80
2022/08/18 01:37:53;;;;;;;8.02;5.05;;;;;;;14.67;80.29;100244.69;4994894;28;20086;-85
2022/08/18 01:40:21;;;;;;;7.47;4.82;;;;;;;14.66;80.72;100242.22;5000726;28;20038;-82
2022/08/18 01:42:48;;;;;;;8.88;5.22;;;;;;;14.62;80.93;100237.25;4979217;28;20041;-82
2022/08/18 01:45:16;;;;;;;5.75;4.82;;;;;;;14.61;81.48;100235.59;4987236;28;20072;-83
2022/08/18 01:47:43;;;;;;;8.65;5.80;;;;;;;14.62;81.78;100237.25;4978665;28;20033;-79
2022/08/18 01:50:12;;;;;;;5.70;5.05;;;;;;;14.58;82.67;100229.78;4995457;28;20037;-80
2022/08/18 01:52:39;;;;;;;6.22;5.38;;;;;;;14.57;83.11;100220.16;4995166;28;20488;-82
2022/08/18 01:55:06;;;;;;;6.63;5.07;;;;;;;14.57;83.55;100215.66;5011427;28;20034;-84
2022/08/18 01:57:34;;;;;;;8.10;5.57;;;;;;;14.56;84.15;100214.00;5010711;28;20036;-80
2022/08/18 02:00:01;;;;;;;7.85;5.40;;;;;;;14.50;84.34;100206.75;4992759;28;20042;-81
2022/08/18 02:02:31;;;;;;;7.03;6.05;;;;;;;14.44;85.25;100207.44;4985833;28;20041;-79
2022/08/18 02:05:03;;;;;;;6.97;5.28;;;;;;;14.39;85.70;100194.69;5005204;28;20042;-79
2022/08/18 02:07:29;;;;;;;6.82;5.70;;;;;;;14.31;86.40;100190.25;4969882;28;20046;-78
2022/08/18 02:09:54;;;;;;;9.52;5.47;;;;;;;14.29;87.13;100189.56;5013508;28;20046;-79
2022/08/18 02:12:20;;;;;;;8.07;6.20;;;;;;;14.28;87.49;100195.91;4981012;28;20100;-79
2022/08/18 02:14:46;;;;;;;8.15;5.65;;;;;;;14.26;87.77;100196.09;4988176;28;20073;-82
2022/08/18 02:17:13;;;;;;;6.40;5.72;;;;;;;14.26;87.89;100185.44;5007287;28;20038;-83
2022/08/18 02:19:44;;;;;;;14.63;6.05;;;;;;;14.26;87.91;100174.81;5010435;28;20109;-80
2022/08/18 02:22:18;;;;;;;7.88;5.75;;;;;;;14.28;88.18;100177.31;4980226;28;20404;-78
2022/08/18 02:24:44;;;;;;;7.45;5.97;;;;;;;14.27;88.67;100175.63;5000625;28;20373;-78
2022/08/18 02:27:12;;;;;;;10.38;5.97;;;;;;;14.23;89.26;100164.53;4986313;28;20069;-80
2022/08/18 02:29:38;;;;;;;7.47;5.72;;;;;;;14.24;89.29;100162.69;5009585;28;20042;-81
2022/08/18 02:32:05;;;;;;;7.97;5.90;;;;;;;14.18;90.18;100166.88;4973592;28;20038;-79
2022/08/18 02:34:31;;;;;;;10.25;5.40;;;;;;;14.18;90.31;100166.88;5001141;28;20084;-81
2022/08/18 02:36:58;;;;;;;6.35;5.40;;;;;;;14.19;90.18;100167.72;4992775;28;20038;-80
2022/08/18 02:39:24;;;;;;;6.13;4.65;;;;;;;14.19;90.65;100167.72;4965359;28;20038;-79
2022/08/18 02:41:50;;;;;;;10.70;5.07;;;;;;;14.20;90.79;100164.88;5021635;28;20031;-78
2022/08/18 02:44:16;;;;;;;7.38;5.30;;;;;;;14.20;90.77;100167.53;5015604;28;20510;-82
2022/08/18 02:46:42;;;;;;;5.05;4.35;;;;;;;14.19;91.70;100165.88;4972025;28;20037;-84
2022/08/18 02:49:08;;;;;;;10.23;4.65;;;;;;;14.18;91.86;100153.59;5009802;28;20049;-80
2022/08/18 02:51:34;;;;;;;6.10;4.30;;;;;;;14.17;92.00;100146.63;5011187;28;20042;-80
2022/08/18 02:53:59;;;;;;;9.07;4.22;;;;;;;14.20;91.89;100146.28;4996998;28;20399;-82
2022/08/18 02:56:28;;;;;;;6.47;4.57;;;;;;;14.24;91.88;100149.41;4991912;28;20096;-87
2022/08/18 02:58:56;;;;;;;6.68;4.07;;;;;;;14.25;91.87;100157.19;4989729;28;20036;-81
2022/08/18 03:01:27;;;;;;;4.97;3.95;;;;;;;14.26;91.75;100153.56;5003623;28;20031;-82
2022/08/18 03:03:53;;;;;;;3.85;3.45;;;;;;;14.28;92.24;100142.75;5014517;28;20040;-80
2022/08/18 03:06:20;;;;;;;5.00;3.80;;;;;;;14.30;92.08;100132.75;4968102;28;20054;-79
2022/08/18 03:08:49;;;;;;;6.03;3.45;;;;;;;14.32;92.24;100132.56;4990260;28;20042;-80
2022/08/18 03:11:17;;;;;;;3.92;3.53;;;;;;;14.37;92.38;100143.50;4988715;28;20034;-80
2022/08/18 03:13:43;;;;;;;6.15;3.67;;;;;;;14.36;92.63;100129.41;4992419;28;20424;-83
2022/08/18 03:16:09;;;;;;;6.28;3.75;;;;;;;14.36;92.40;100126.75;4971029;28;20124;-79
2022/08/18 03:18:35;;;;;;;7.18;3.80;;;;;;;14.42;92.47;100127.00;5003109;28;20073;-84
2022/08/18 03:21:09;;;;;;;4.82;3.30;;;;;;;14.47;92.37;100127.31;4949050;28;20049;-80
2022/08/18 03:23:35;;;;;;;6.90;4.63;;;;;;;14.50;92.36;100124.31;4980051;28;20125;-80
2022/08/18 03:26:01;;;;;;;5.32;3.00;;;;;;;14.57;92.17;100121.75;5003622;28;20091;-81
2022/08/18 03:28:27;;;;;;;4.75;3.50;;;;;;;14.60;92.32;100124.06;4991032;28;20037;-80
2022/08/18 03:30:54;;;;;;;4.80;2.97;;;;;;;14.61;92.33;100115.91;4958922;28;20543;-80
2022/08/18 03:33:20;;;;;;;4.05;2.28;;;;;;;14.66;92.28;100109.22;5031739;28;20041;-80
2022/08/18 03:35:46;;;;;;;2.80;2.22;;;;;;;14.68;92.45;100104.53;5010667;28;20036;-80
2022/08/18 03:38:12;;;;;;;3.88;2.45;;;;;;;14.62;92.46;100098.94;5027360;28;20049;-85
2022/08/18 03:40:37;;;;;;;3.70;3.00;;;;;;;14.61;92.51;100096.44;4976939;28;20484;-80
2022/08/18 03:43:05;;;;;;;3.78;2.05;;;;;;;14.62;92.58;100090.16;4970172;28;20068;-79
2022/08/18 03:45:32;;;;;;;3.08;1.88;;;;;;;14.61;93.07;100088.47;5007766;28;20044;-80
2022/08/18 03:47:59;;;;;;;3.40;2.38;;;;;;;14.62;92.85;100087.47;4983546;28;20030;-82
2022/08/18 03:50:29;;;;;;;3.10;1.80;;;;;;;14.61;92.79;100080.50;4973261;28;20042;-81
2022/08/18 03:52:58;;;;;;;1.73;1.60;;;;;;;14.61;92.86;100091.97;4967017;28;20547;-81
2022/08/18 03:55:28;;;;;;;1.35;1.25;;;;;;;14.62;93.02;100087.47;4979717;28;20068;-80
2022/08/18 03:57:57;;;;;;;1.92;1.30;;;;;;;14.64;92.92;100083.63;4952445;28;20074;-80
2022/08/18 04:00:25;;;;;;;2.35;1.10;;;;;;;14.64;93.06;100078.31;4995749;28;20030;-80
2022/08/18 04:02:51;;;;;;;1.25;1.02;;;;;;;14.67;92.94;100077.09;4997342;28;20040;-80
2022/08/18 04:05:17;;;;;;;1.52;1.00;;;;;;;14.68;93.18;100075.28;4993696;28;20030;-81
2022/08/18 04:07:42;;;;;;;1.40;0.85;;;;;;;14.62;93.46;100075.00;4961811;28;20061;-80
2022/08/18 04:10:08;;;;;;;1.27;1.00;;;;;;;14.61;93.43;100078.66;4983521;28;20042;-83
2022/08/18 04:12:35;;;;;;;0.90;0.80;;;;;;;14.60;93.46;100076.19;4992249;28;20073;-80
2022/08/18 04:15:02;;;;;;;0.73;0.70;;;;;;;14.58;93.67;100083.50;4994579;28;20045;-82
2022/08/18 04:17:28;;;;;;;1.05;0.88;;;;;;;14.56;93.85;100078.38;4974119;28;20038;-82
2022/08/18 04:19:55;;;;;;;1.73;0.90;;;;;;;14.56;93.90;100074.88;4975971;28;20046;-83
2022/08/18 04:22:21;;;;;;;1.58;0.80;;;;;;;14.52;94.47;100059.28;4980075;28;20045;-86
2022/08/18 04:24:49;;;;;;;1.23;0.85;;;;;;;14.51;94.35;100065.63;4987235;28;20491;-80
2022/08/18 04:27:15;;;;;;;1.33;1.05;;;;;;;14.51;94.67;100067.44;5013884;28;20034;-83
2022/08/18 04:29:41;;;;;;;1.67;1.20;;;;;;;14.51;94.93;100062.13;4931304;28;20031;-81
2022/08/18 04:32:07;;;;;;;1.17;0.60;;;;;;;14.51;94.85;100057.63;4988799;28;20395;-81
2022/08/18 04:34:33;;;;;;;1.33;0.80;;;;;;;14.50;94.63;100050.69;5010372;28;20129;-81
2022/08/18 04:37:01;;;;;;;1.52;1.10;;;;;;;14.51;95.21;100057.63;4991793;28;20466;-80
2022/08/18 04:39:27;;;;;;;0.80;0.80;;;;;;;14.55;95.29;100059.94;4962115;28;20140;-82
2022/08/18 04:41:52;;;;;;;1.10;0.88;;;;;;;14.58;95.20;100055.09;4962482;28;20045;-81
2022/08/18 04:44:20;;;;;;;0.60;0.60;;;;;;;14.60;95.18;100046.94;5013714;28;20025;-81
2022/08/18 04:46:52;;;;;;;0.70;0.70;;;;;;;14.60;95.19;100038.94;4977044;28;20038;-81
2022/08/18 04:49:24;;;;;;;1.25;0.80;;;;;;;14.60;95.44;100026.50;4967647;28;20042;-80
2022/08/18 04:54:37;;;;;;;0.95;0.57;;;;;;;14.60;95.35;100041.63;4995080;28;20429;-84
2022/08/18 04:57:13;;;;;;;1.38;0.60;;;;;;;14.64;95.53;100046.38;4993931;28;20045;-80
2022/08/18 04:59:41;;;;;;;0.40;0.40;;;;;;;14.63;95.76;100047.41;5007044;28;20109;-80
2022/08/18 05:02:08;;;;;;;0.93;0.60;;;;;;;14.66;95.73;100051.53;5003929;28;20519;-82
2022/08/18 05:04:36;;;;;;;0.65;0.65;;;;;;;14.65;96.26;100047.22;4996630;28;20042;-81
2022/08/18 05:07:08;;;;;;;0.65;0.52;;;;;;;14.68;96.06;100048.69;4994000;28;20129;-80
2022/08/18 05:09:34;;;;;;;1.15;0.68;;;;;;;14.67;96.31;100034.56;4978475;28;20037;-80
2022/08/18 05:12:01;;;;;;;0.50;0.50;;;;;;;14.66;96.75;100034.72;4988249;28;20119;-80
2022/08/18 05:14:27;;;;;;;0.57;0.55;;;;;;;14.67;96.71;100028.41;4984881;28;20041;-84
2022/08/18 05:16:56;;;;;;;1.27;0.45;;;;;;;14.66;96.85;100030.25;4994560;28;20034;-83
2022/08/18 05:19:24;;;;;;;1.35;0.50;;;;;;;14.67;97.22;100039.06;4994954;28;20034;-87
2022/08/18 05:21:50;;;;;;;0.73;0.35;;;;;;;14.68;97.41;100038.03;4991422;28;20034;-80
2022/08/18 05:24:16;;;;;;;0.77;0.50;;;;;;;14.69;97.44;100031.72;5003135;28;20511;-82
2022/08/18 05:26:42;;;;;;;0.95;0.40;;;;;;;14.70;97.72;100028.88;4994004;28;20034;-81
2022/08/18 05:29:08;;;;;;;1.45;0.63;;;;;;;14.70;97.63;100017.41;4981652;28;20660;-87
2022/08/18 05:31:34;;;;;;;0.40;0.40;;;;;;;14.71;97.74;100017.22;4994619;28;20045;-86
2022/08/18 05:34:03;;;;;;;0.30;0.30;;;;;;;14.72;98.03;100018.03;5009513;28;20064;-82
2022/08/18 05:36:47;;;;;;;0.45;0.32;;;;;;;14.74;97.97;100021.34;5000368;28;20038;-80
2022/08/18 05:39:30;;;;;;;0.55;0.40;;;;;;;14.72;98.12;100026.84;4980023;28;20500;-89
2022/08/18 05:42:10;;;;;;;0.47;0.40;;;;;;;14.74;98.16;100019.53;5003473;28;20041;-80
2022/08/18 05:44:41;;;;;;;0.32;0.30;;;;;;;14.78;98.38;100019.97;4986818;28;20041;-81
2022/08/18 05:47:24;;;;;;;1.85;0.50;;;;;;;14.79;98.45;100007.50;5011080;28;20030;-83
2022/08/18 05:49:51;;;;;;;1.02;0.40;;;;;;;14.81;98.51;100005.53;4994558;28;20065;-82
2022/08/18 05:52:39;;;;;;;0.50;0.30;;;;;;;14.80;98.72;100010.00;4985217;28;20100;-82
2022/08/18 05:58:08;;;;;;;1.95;0.30;;;;;;;14.78;99.70;99993.38;4971888;28;20093;-80
2022/08/18 06:00:36;;;;;;;0.82;0.25;;;;;;;14.77;99.97;99989.06;4985510;28;20033;-84
2022/08/18 06:03:15;;;;;;;0.20;0.20;;;;;;;14.76;100.00;99988.22;4966852;28;20038;-82
2022/08/18 06:06:01;;;;;;;0.30;0.30;;;;;;;14.74;100.00;99982.28;5015451;28;20476;-84
2022/08/18 06:08:35;;;;;;;1.98;0.40;;;;;;;14.77;100.00;99983.75;5020702;28;20077;-80
2022/08/18 06:11:01;;;;;;;0.38;0.20;;;;;;;14.77;100.00;99983.75;5022849;28;20038;-86
2022/08/18 06:13:27;;;;;;;6.70;1.05;;;;;;;14.79;100.00;99981.75;4996950;28;20112;-81
2022/08/18 06:16:11;;;;;;;0.30;0.30;;;;;;;14.82;100.00;99988.53;5011566;28;20065;-85
2022/08/18 06:18:58;;;;;;;1.90;0.57;;;;;;;14.81;100.00;99984.25;4994990;28;20087;-80
2022/08/18 06:21:56;;;;;;;0.52;0.20;;;;;;;14.82;100.00;99975.25;4996059;28;20462;-82
2022/08/18 06:24:34;;;;;;;1.40;0.22;;;;;;;14.86;100.00;99988.00;4965856;28;20536;-81
2022/08/18 06:27:06;;;;;;;0.20;0.20;;;;;;;14.86;100.00;99968.53;5009474;28;20034;-82
2022/08/18 06:30:09;;;;;;;0.17;0.17;;;;;;;14.90;100.00;99977.81;4992193;28;20133;-82
2022/08/18 06:32:43;;;;;;;0.20;0.20;;;;;;;14.94;100.00;99979.09;4978536;28;20396;-86
2022/08/18 06:35:30;;;;;;;0.40;0.20;;;;;;;14.97;100.00;99960.09;4995383;28;20041;-82
2022/08/18 06:38:47;;;;;;;1.65;0.30;;;;;;;15.00;100.00;99969.56;5007118;28;20124;-81
2022/08/18 06:41:20;;;;;;;0.68;0.28;;;;;;;15.06;100.00;99979.44;4987842;28;20037;-83
2022/08/18 06:43:57;;;;;;;1.13;0.40;;;;;;;15.13;100.00;99980.34;5002319;28;20038;-86
2022/08/18 06:46:32;;;;;;;1.55;0.10;;;;;;;15.19;100.00;99970.81;4992258;28;20042;-84
2022/08/18 06:49:03;;;;;;;0.30;0.30;;;;;;;15.22;100.00;99975.75;5011978;28;20128;-84
2022/08/18 06:51:29;;;;;;;0.10;0.10;;;;;;;15.25;100.00;99966.56;4962468;28;20045;-83
2022/08/18 06:53:55;;;;;;;0.30;0.30;;;;;;;15.28;100.00;99963.53;4999354;28;20491;-83
2022/08/18 06:56:53;;;;;;;3.45;0.20;;;;;;;15.31;100.00;99968.47;4981804;28;20044;-84
2022/08/18 06:59:27;;;;;;;0.90;0.20;;;;;;;15.32;100.00;99958.66;4985255;28;20046;-86
2022/08/18 07:02:11;;;;;;;0.82;0.30;;;;;;;15.33;100.00;99944.31;4978661;28;20037;-83
2022/08/18 07:05:01;;;;;;;0.75;0.30;;;;;;;15.34;100.00;99943.31;5011521;28;20172;-85
2022/08/18 07:07:39;;;;;;;0.75;0.20;;;;;;;15.40;100.00;99944.41;5020650;28;20054;-88
2022/08/18 07:10:14;;;;;;;1.00;0.22;;;;;;;15.46;100.00;99954.28;5012441;28;20034;-82
2022/08/18 07:12:40;;;;;;;1.67;0.20;;;;;;;15.48;100.00;99955.75;4962726;28;20074;-83
2022/08/18 07:15:10;;;;;;;1.02;0.28;;;;;;;15.52;100.00;99956.19;4991678;28;20452;-83
2022/08/18 07:17:37;;;;;;;0.38;0.20;;;;;;;15.58;100.00;99957.28;5015169;28;20057;-87
2022/08/18 07:20:07;;;;;;;0.35;0.20;;;;;;;15.63;100.00;99961.03;4983936;28;20057;-86
2022/08/18 07:22:53;;;;;;;0.82;0.30;;;;;;;15.66;100.00;99965.16;5004989;28;20396;-85
2022/08/18 07:25:23;;;;;;;;;;;;;;;15.63;100.00;99965.53;4958219;28;20121;-85
2022/08/18 07:27:50;;;;;;;0.75;0.20;;;;;;;15.74;100.00;99964.19;4990013;28;19948;-85
2022/08/18 07:30:18;;;;;;;0.17;0.10;;;;;;;15.80;100.00;99968.75;4973070;28;20543;-83
2022/08/18 07:32:58;;;;;;;0.43;0.20;;;;;;;15.84;100.00;99954.06;4922854;28;20034;-84
2022/08/18 07:35:48;;;;;;;0.30;0.20;;;;;;;15.88;100.00;99955.31;5000431;28;20034;-81
2022/08/18 07:38:30;;;;;;;0.75;0.30;;;;;;;15.92;100.00;99947.75;4993017;28;20042;-86
2022/08/18 07:41:12;;;;;;;0.10;0.10;;;;;;;15.95;100.00;99950.03;4985791;28;20072;-88
2022/08/18 07:43:41;;;;;;;0.10;0.10;;;;;;;16.04;100.00;99949.94;5010475;28;20376;-85
2022/08/18 07:46:15;;;;;;;0.10;0.10;;;;;;;16.10;100.00;99949.16;4998287;28;20137;-82
2022/08/18 07:48:40;;;;;;;0.17;0.13;;;;;;;16.14;100.00;99953.09;4994051;28;20148;-81
2022/08/18 07:51:54;;;;;;;0.10;0.10;;;;;;;16.19;100.00;99949.84;5003005;28;20095;-87
2022/08/18 07:54:49;;;;;;;0.40;0.20;;;;;;;16.22;100.00;99936.13;4940396;29;20429;-84
2022/08/18 07:57:47;;;;;;;0.32;0.10;;;;;;;16.30;100.00;99946.66;4946147;29;20374;-82
2022/08/18 08:00:38;;;;;;;1.10;0.20;;;;;;;16.38;100.00;99932.34;4993934;28;20395;-83
2022/08/18 08:03:16;;;;;;;0.10;0.10;;;;;;;16.46;100.00;99936.69;4977254;28;20046;-86
2022/08/18 08:05:48;;;;;;;0.28;0.13;;;;;;;16.51;100.00;99934.25;5015355;28;20092;-88
2022/08/18 08:08:36;;;;;;;0.20;0.20;;;;;;;16.52;100.00;99943.91;4998155;28;20061;-80
2022/08/18 08:11:20;;;;;;;0.98;0.10;;;;;;;16.54;100.00;99935.69;4998005;28;20074;-82
2022/08/18 08:14:00;;;;;;;0.22;0.10;;;;;;;16.59;100.00;99933.28;4967190;28;20129;-80
2022/08/18 08:16:44;;;;;;;0.20;0.10;;;;;;;16.65;100.00;99929.81;4979841;28;20041;-82
2022/08/18 08:19:22;;;;;;;0.40;0.30;;;;;;;16.70;100.00;99931.88;4981286;28;20044;-82
2022/08/18 08:21:57;;;;;;;0.10;0.10;;;;;;;16.72;100.00;99932.53;4978676;28;20042;-80
2022/08/18 08:24:58;;;;;;;1.55;0.10;;;;;;;16.70;100.00;99922.06;4979507;28;20134;-84
2022/08/18 08:28:12;;;;;;;2.85;0.20;;;;;;;16.71;100.00;99915.69;4998277;28;20526;-80
2022/08/18 08:30:51;;;;;;;0.65;0.10;;;;;;;16.74;100.00;99914.44;4966939;28;20046;-80
2022/08/18 08:33:39;;;;;;;0.10;0.10;;;;;;;16.78;100.00;99918.38;4993562;28;20033;-81
2022/08/18 08:36:24;;;;;;;0.43;0.00;;;;;;;16.81;100.00;99922.50;5000599;28;20538;-83
2022/08/18 08:39:28;;;;;;;0.30;0.10;;;;;;;16.83;100.00;99936.47;4997504;28;20140;-83
2022/08/18 08:42:00;;;;;;;0.10;0.10;;;;;;;16.85;100.00;99926.44;4963244;28;20579;-87
2022/08/18 08:44:33;;;;;;;0.10;0.10;;;;;;;16.87;100.00;99921.69;4989830;28;20042;-86
2022/08/18 08:47:09;;;;;;;0.20;0.10;;;;;;;16.95;100.00;99926.03;5008852;28;20061;-85
2022/08/18 08:49:50;;;;;;;0.10;0.10;;;;;;;16.96;100.00;99917.03;5005898;28;20112;-83
2022/08/18 08:52:25;;;;;;;0.70;0.20;;;;;;;17.01;100.00;99917.22;4984780;28;20104;-86
2022/08/18 08:54:59;;;;;;;2.20;0.20;;;;;;;17.06;100.00;99917.47;4960258;28;20099;-84
2022/08/18 08:57:28;;;;;;;0.10;0.10;;;;;;;17.11;100.00;99911.53;5012603;28;20041;-83
2022/08/18 08:59:56;;;;;;;0.10;0.10;;;;;;;17.15;100.00;99909.31;4980577;28;20042;-81
2022/08/18 09:02:40;;;;;;;0.10;0.10;;;;;;;17.16;100.00;99909.09;4968911;28;20042;-86
2022/08/18 09:05:35;;;;;;;0.20;0.20;;;;;;;17.20;100.00;99901.53;4991372;28;20030;-85
2022/08/18 09:08:10;;;;;;;0.10;0.10;;;;;;;17.25;100.00;99909.72;4951725;28;20393;-80
2022/08/18 09:10:47;;;;;;;0.10;0.10;;;;;;;17.24;100.00;99905.41;4996647;28;20037;-85
2022/08/18 09:13:31;;;;;;;0.63;0.10;;;;;;;17.26;100.00;99899.88;4994219;28;20042;-81
2022/08/18 09:16:03;;;;;;;1.98;0.10;;;;;;;17.28;100.00;99884.47;5002517;28;20048;-78
2022/08/18 09:18:44;;;;;;;0.08;0.05;;;;;;;17.33;100.00;99876.66;5019708;28;20540;-81
2022/08/18 09:21:29;;;;;;;1.75;0.10;;;;;;;17.38;100.00;99871.53;5011899;28;20041;-85
2022/08/18 09:24:08;;;;;;;0.20;0.03;;;;;;;17.40;100.00;99866.81;4995758;28;20034;-80
2022/08/18 09:26:38;;;;;;;0.20;0.20;;;;;;;17.39;100.00;99859.81;4996527;28;20030;-80
2022/08/18 09:29:22;;;;;;;0.25;0.10;;;;;;;17.44;100.00;99864.56;4992755;28;20056;-81
2022/08/18 09:32:19;;;;;;;0.10;0.10;;;;;;;17.49;100.00;99856.75;5008374;28;20509;-83
2022/08/18 09:34:55;;;;;;;0.00;0.00;;;;;;;17.53;100.00;99860.69;4970188;28;20044;-80
2022/08/18 09:37:27;;;;;;;0.50;0.10;;;;;;;17.57;100.00;99861.91;4992747;28;20522;-81
2022/08/18 09:43:44;;;;;;;0.17;0.00;;;;;;;17.54;100.00;99864.97;5001494;28;20044;-85
2022/08/18 09:46:09;;;;;;;0.10;0.10;;;;;;;17.57;100.00;99859.22;4968664;28;20046;-83
2022/08/18 09:48:38;;;;;;;0.13;0.03;;;;;;;17.60;100.00;99853.47;4962922;28;20080;-83
2022/08/18 09:51:36;;;;;;;0.30;0.10;;;;;;;17.60;100.00;99852.63;5021717;28;20037;-85
2022/08/18 09:54:08;;;;;;;0.32;0.20;;;;;;;17.64;100.00;99853.06;4999306;28;20046;-82
2022/08/18 09:56:48;;;;;;;0.70;0.10;;;;;;;17.69;100.00;99855.94;4978644;28;20085;-82
2022/08/18 09:59:36;;;;;;;0.20;0.10;;;;;;;17.75;100.00;99847.09;4987138;28;20070;-81
2022/08/18 10:02:10;;;;;;;0.10;0.10;;;;;;;17.84;100.00;99843.19;4978952;28;20041;-87
2022/08/18 10:04:50;;;;;;;0.17;0.10;;;;;;;17.90;100.00;99836.16;5010852;28;20034;-85
2022/08/18 10:07:19;;;;;;;0.30;0.15;;;;;;;17.98;100.00;99837.81;4996289;28;20069;-85
2022/08/18 10:09:56;;;;;;;0.28;0.10;;;;;;;18.07;100.00;99851.78;4985193;28;20030;-82
2022/08/18 10:12:28;;;;;;;0.13;0.10;;;;;;;18.16;100.00;99849.72;4997081;28;20525;-81
2022/08/18 10:15:01;;;;;;;0.10;0.10;;;;;;;18.22;100.00;99854.22;4982787;28;20042;-83
2022/08/18 10:17:49;;;;;;;0.10;0.10;;;;;;;18.29;100.00;99846.19;5007029;28;20072;-82
2022/08/18 10:20:38;;;;;;;2.20;0.10;;;;;;;18.32;100.00;99853.81;5007918;28;20091;-81
2022/08/18 10:23:06;;;;;;;0.10;0.00;;;;;;;18.33;100.00;99834.88;4960473;28;20057;-80
2022/08/18 10:25:36;;;;;;;0.28;0.10;;;;;;;18.41;100.00;99820.44;4964936;28;20388;-80
2022/08/18 10:28:05;;;;;;;0.03;0.00;;;;;;;18.49;100.00;99827.38;5015165;28;20579;-85
2022/08/18 10:30:34;;;;;;;0.00;0.00;;;;;;;18.55;100.00;99823.06;4992359;28;20037;-86
2022/08/18 10:33:10;;;;;;;0.10;0.10;;;;;;;18.55;100.00;99825.75;4997246;28;20051;-81
2022/08/18 10:35:36;;;;;;;;;;;;;;;18.45;100.00;99831.53;4986976;28;20032;-85
2022/08/18 10:38:21;;;;;;;0.00;0.00;;;;;;;18.50;100.00;99829.06;4995060;28;19914;-79
2022/08/18 10:41:05;;;;;;;0.85;0.10;;;;;;;18.46;100.00;99828.66;4992508;28;20034;-82
2022/08/18 10:43:39;;;;;;;0.00;0.00;;;;;;;18.46;100.00;99830.50;4988576;28;20038;-81
2022/08/18 10:46:15;;;;;;;0.30;0.10;;;;;;;18.44;100.00;99819.19;4996507;28;20085;-79
2022/08/18 10:48:41;;;;;;;0.93;0.00;;;;;;;18.45;100.00;99816.31;5008809;28;20043;-81
2022/08/18 10:51:10;;;;;;;0.80;0.10;;;;;;;18.51;100.00;99814.63;5015383;28;20108;-80
2022/08/18 10:53:49;;;;;;;1.38;0.20;;;;;;;18.53;100.00;99809.91;4961517;28;20133;-84
2022/08/18 10:56:34;;;;;;;0.10;0.00;;;;;;;18.52;100.00;99802.09;4990528;28;20041;-79
2022/08/18 10:59:18;;;;;;;0.55;0.03;;;;;;;18.56;100.00;99800.59;4969219;28;20484;-82
2022/08/18 11:01:57;;;;;;;0.80;0.10;;;;;;;18.61;100.00;99800.81;4989548;28;20128;-76
2022/08/18 11:04:30;;;;;;;0.95;0.10;;;;;;;18.61;100.00;99798.13;4989850;28;20068;-79
2022/08/18 11:07:24;;;;;;;0.82;0.10;;;;;;;18.59;100.00;99797.50;5005781;28;20057;-82
2022/08/18 11:09:56;;;;;;;0.55;0.10;;;;;;;18.63;100.00;99797.91;4994618;28;20073;-84
2022/08/18 11:12:59;;;;;;;3.63;0.25;;;;;;;18.62;100.00;99799.75;4989465;28;20173;-84
2022/08/18 11:15:47;;;;;;;0.17;0.10;;;;;;;18.64;100.00;99802.22;4989650;28;20077;-83
2022/08/18 11:18:41;;;;;;;0.10;0.10;;;;;;;18.60;100.00;99793.81;4974021;28;20495;-81
2022/08/18 11:21:38;;;;;;;0.20;0.13;;;;;;;18.62;100.00;99793.59;4993384;28;20068;-86
2022/08/18 11:24:23;;;;;;;0.10;0.10;;;;;;;18.64;100.00;99794.19;4979358;28;20396;-82
2022/08/18 11:26:54;;;;;;;0.20;0.00;;;;;;;18.65;100.00;99796.66;5006378;28;20034;-82
2022/08/18 11:29:36;;;;;;;0.75;0.30;;;;;;;18.64;100.00;99791.50;4993437;28;20037;-85
2022/08/18 11:32:17;;;;;;;0.10;0.10;;;;;;;18.65;100.00;99793.16;4968579;28;20029;-83
2022/08/18 11:35:21;;;;;;;2.70;0.13;;;;;;;18.71;100.00;99786.97;4989978;28;20072;-79
2022/08/18 11:38:00;;;;;;;0.65;0.30;;;;;;;18.74;100.00;99785.69;4975695;28;20045;-81
2022/08/18 11:40:30;;;;;;;0.65;0.10;;;;;;;18.79;100.00;99788.56;5025378;28;20388;-80
2022/08/18 11:43:10;;;;;;;0.10;0.10;;;;;;;18.78;100.00;99776.19;4988862;28;20041;-86
2022/08/18 11:45:42;;;;;;;0.10;0.10;;;;;;;18.72;100.00;99789.41;5018455;28;20036;-80
2022/08/18 11:48:23;;;;;;;0.88;0.10;;;;;;;18.72;100.00;99789.41;4990201;28;20048;-79
2022/08/18 11:50:52;;;;;;;3.28;0.20;;;;;;;18.72;100.00;99786.75;4983564;28;20045;-79
2022/08/18 11:53:24;;;;;;;0.52;0.30;;;;;;;18.71;100.00;99781.59;4966735;28;20033;-83
2022/08/18 11:56:16;;;;;;;0.20;0.20;;;;;;;18.74;100.00;99783.03;4998616;28;20057;-79
2022/08/18 11:58:48;;;;;;;0.20;0.20;;;;;;;18.82;100.00;99774.75;5006312;28;20026;-81
2022/08/18 12:01:45;;;;;;;0.17;0.17;;;;;;;18.90;100.00;99766.47;4994481;28;20161;-84
2022/08/18 12:04:20;;;;;;;0.65;0.13;;;;;;;19.04;100.00;99761.81;4996951;28;20038;-82
2022/08/18 12:06:55;;;;;;;1.65;0.20;;;;;;;19.19;100.00;99758.03;5013269;28;20039;-83
2022/08/18 12:09:30;;;;;;;0.10;0.10;;;;;;;19.39;100.00;99757.84;4936528;28;20046;-83
2022/08/18 12:12:13;;;;;;;0.47;0.47;;;;;;;19.59;100.00;99752.31;5013052;28;20590;-79
2022/08/18 12:15:24;;;;;;;1.60;0.10;;;;;;;19.80;100.00;99757.44;5019349;28;20041;-78
2022/08/18 12:17:50;;;;;;;0.20;0.10;;;;;;;19.87;100.00;99747.50;4973724;28;20046;-81